Harle — ZCTV4 — position and weather

sailwx.info

Track history (hours):
 
Tides and Currents Weather Stations Pressure Air Temp Water Temp Dewpoint Dewpoint Depression Visibility Wind Speed Wind Dir Waves Ship Positions

Harle

Last reported at 2016-May-27 19:26 UTC. Time now 2016-May-27 20:03 UTC.
Position N 43°32' E 007°02'.

Length 45 m; draft 2.7 m.

Type: Pleasure craft. MMSI: 319323000.

Date/timePositionNaut miles runAvg speedWind from/ knotsBaromVisibWave heightAir tempDewpointWater temp
2016-May-27 19:26N 43°32' E 007°02'0 0.0
2016-May-27 18:32N 43°32' E 007°02'0 0.0
2016-May-27 17:32N 43°32' E 007°02'0 0.0
2016-May-27 16:32N 43°32' E 007°02'0 0.0
2016-May-27 15:32N 43°32' E 007°02'0 0.0
2016-May-27 14:32N 43°32' E 007°02'0 0.0
2016-May-27 13:32N 43°32' E 007°02'0 0.0
2016-May-27 12:33N 43°32' E 007°02'2 2.4
2016-May-27 11:34N 43°30' E 007°01'3 2.1
2016-May-27 10:13N 43°33' E 007°01'0 0.0
2016-May-27 09:31N 43°33' E 007°01'0 0.0
2016-May-27 08:19N 43°33' E 007°01'0 0.0
2016-May-27 05:28N 43°33' E 007°01'0 0.0
2016-May-27 01:19N 43°33' E 007°01'0 0.0
2016-May-27 00:30N 43°33' E 007°01'0 0.0
2016-May-26 20:34N 43°33' E 007°01'0 0.0
2016-May-26 17:04N 43°33' E 007°01'0 0.0
2016-May-26 16:30N 43°33' E 007°01'0 0.0
2016-May-26 12:31N 43°33' E 007°01'0 0.0
2016-May-26 11:33N 43°33' E 007°01'0 0.0
2016-May-26 08:33N 43°33' E 007°01'0 0.0
2016-May-26 07:33N 43°33' E 007°01'0 0.0
2016-May-26 03:33N 43°33' E 007°01'0 0.0
2016-May-26 00:12N 43°33' E 007°01'0 0.0
2016-May-25 23:33N 43°33' E 007°01'0 0.0
2016-May-25 22:33N 43°33' E 007°01'0 0.0
2016-May-25 19:33N 43°33' E 007°01'0 0.0
2016-May-25 18:30N 43°33' E 007°01'0 0.0
2016-May-25 15:24N 43°33' E 007°01'0 0.0
2016-May-25 14:33N 43°33' E 007°01'0 0.0
2016-May-25 11:32N 43°33' E 007°01'0 0.0
2016-May-25 10:32N 43°33' E 007°01'0 0.0
2016-May-25 07:32N 43°33' E 007°01'0 0.0
2016-May-25 06:32N 43°33' E 007°01'0 0.0
2016-May-25 03:32N 43°33' E 007°01'0 0.0
2016-May-25 02:32N 43°33' E 007°01'0 0.0
2016-May-24 23:23N 43°33' E 007°01'0 0.0
2016-May-24 22:32N 43°33' E 007°01'0 0.0
2016-May-24 19:17N 43°33' E 007°01'0 0.0
2016-May-24 18:29N 43°33' E 007°01'0 0.0
2016-May-24 17:32N 43°33' E 007°01'0 0.0
2016-May-24 13:23N 43°33' E 007°01'0 0.0
2016-May-24 07:13N 43°33' E 007°01'0 0.2
2016-May-24 06:33N 43°33' E 007°01'0 0.4
2016-May-24 05:34N 43°33' E 007°01'6 5.5
2016-May-24 04:33N 43°32' E 007°09'9 9.5
2016-May-24 03:33N 43°36' E 007°20'10 9.4
2016-May-24 02:31N 43°40' E 007°33'19 9.4
2016-May-24 00:30N 43°47' E 007°57'1010.0
2016-May-23 23:31N 43°53' E 008°09'2611.0
2016-May-23 21:08N 44°12' E 008°33'712.0
2016-May-23 20:33N 44°19' E 008°36'1212.0
2016-May-23 19:34N 44°21' E 008°53'4 3.6
2016-May-23 18:31N 44°25' E 008°55'0 0.0
2016-May-23 17:31N 44°25' E 008°55'0 0.0
2016-May-23 16:31N 44°25' E 008°55'0 0.0
2016-May-23 15:31N 44°25' E 008°55'0 0.0
2016-May-23 14:28N 44°25' E 008°55'0 0.0
2016-May-23 13:28N 44°25' E 008°55'0 0.0
2016-May-23 12:28N 44°25' E 008°55'0 0.0
2016-May-23 11:31N 44°25' E 008°55'0 0.0
2016-May-23 10:31N 44°25' E 008°55'0 0.0
2016-May-23 09:33N 44°25' E 008°55'0 0.2
2016-May-23 08:33N 44°24' E 008°55'9 9.4
2016-May-23 07:33N 44°19' E 009°06'5 0.3
2016-May-22 12:26N 44°18' E 009°13'0 0.1
2016-May-22 06:33N 44°18' E 009°13'10 9.8
2016-May-22 05:33N 44°13' E 009°02'1211.6
2016-May-22 04:33N 44°07' E 008°48'1111.5
2016-May-22 03:33N 44°01' E 008°35'1111.0
2016-May-22 02:33N 43°55' E 008°22'1110.8
2016-May-22 01:33N 43°49' E 008°09'3311.0
2016-May-21 22:31N 43°43' E 007°23'1 0.5
2016-May-21 21:13N 43°43' E 007°23'0 0.0
2016-May-21 20:31N 43°43' E 007°23'0 0.0
2016-May-21 19:31N 43°43' E 007°23'0 0.0
2016-May-21 18:25N 43°43' E 007°23'0 0.0
2016-May-21 17:31N 43°43' E 007°23'2 2.2
2016-May-21 16:31N 43°41' E 007°21'0 0.0
2016-May-21 13:31N 43°41' E 007°21'0 0.2
2016-May-21 12:33N 43°42' E 007°21'1010.5
2016-May-21 11:33N 43°34' E 007°11'7 7.3
2016-May-21 10:33N 43°33' E 007°01'0 0.2
2016-May-21 08:33N 43°33' E 007°01'0 0.0
2016-May-21 07:33N 43°33' E 007°01'0 0.0
2016-May-21 06:33N 43°33' E 007°01'0 0.0
2016-May-21 04:33N 43°33' E 007°01'0 0.0
2016-May-21 03:33N 43°33' E 007°01'0 0.0
2016-May-21 02:33N 43°33' E 007°01'0 0.0
2016-May-21 00:12N 43°33' E 007°01'0 0.0
2016-May-20 23:33N 43°33' E 007°01'0 0.0
2016-May-20 22:33N 43°33' E 007°01'0 0.0
2016-May-20 19:33N 43°33' E 007°01'0 0.0
2016-May-20 18:33N 43°33' E 007°01'0 0.0
2016-May-20 15:33N 43°33' E 007°01'0 0.0
2016-May-20 14:33N 43°33' E 007°01'0 0.0
2016-May-20 11:18N 43°33' E 007°01'0 0.0
2016-May-20 10:33N 43°33' E 007°01'0 0.0
2016-May-20 09:33N 43°33' E 007°01'0 0.0
2016-May-20 07:06N 43°33' E 007°01'0 0.0
2016-May-20 06:30N 43°33' E 007°01'0 0.0
2016-May-20 02:33N 43°33' E 007°01'0 0.0
2016-May-20 01:33N 43°33' E 007°01'0 0.0
2016-May-19 22:33N 43°33' E 007°01'0 0.0
2016-May-19 21:33N 43°33' E 007°01'0 0.0
2016-May-19 18:18N 43°33' E 007°01'0 0.0
2016-May-19 17:33N 43°33' E 007°01'0 0.0
2016-May-19 16:33N 43°33' E 007°01'0 0.0
2016-May-19 13:33N 43°33' E 007°01'0 0.0
2016-May-19 12:30N 43°33' E 007°01'0 0.0
2016-May-19 09:33N 43°33' E 007°01'0 0.0
2016-May-19 08:33N 43°33' E 007°01'0 0.0
2016-May-19 05:33N 43°33' E 007°01'0 0.0
2016-May-19 04:33N 43°33' E 007°01'0 0.0
2016-May-19 03:33N 43°33' E 007°01'0 0.0
2016-May-19 01:33N 43°33' E 007°01'0 0.0
2016-May-19 00:33N 43°33' E 007°01'0 0.0
2016-May-18 23:33N 43°33' E 007°01'0 0.0
2016-May-18 20:33N 43°33' E 007°01'0 0.0
2016-May-18 19:33N 43°33' E 007°01'0 0.0
2016-May-18 16:33N 43°33' E 007°01'2 2.2
2016-May-18 15:33N 43°31' E 006°59'2 1.7
2016-May-18 14:31N 43°31' E 006°57'0 0.0
2016-May-18 13:31N 43°31' E 006°57'0 0.0
2016-May-18 11:25N 43°31' E 006°57'4 4.5
2016-May-18 10:33N 43°33' E 007°01'0 0.0
2016-May-18 09:28N 43°33' E 007°01'0 0.0
2016-May-18 08:31N 43°33' E 007°01'0 0.0
2016-May-18 05:25N 43°33' E 007°01'0 0.0
2016-May-18 04:31N 43°33' E 007°01'0 0.0
2016-May-18 03:31N 43°33' E 007°01'0 0.0
2016-May-18 00:31N 43°33' E 007°01'0 0.0
2016-May-17 23:31N 43°33' E 007°01'0 0.0
2016-May-17 20:31N 43°33' E 007°01'0 0.0
2016-May-17 19:31N 43°33' E 007°01'  
Track history (hours):
 
Tides and Currents Weather Stations Pressure Air Temp Water Temp Dewpoint Dewpoint Depression Visibility Wind Speed Wind Dir Waves Ship Positions

Harle

Last reported at 2016-May-27 19:26 UTC. Time now 2016-May-27 20:03 UTC.
Position N 43°32' E 007°02'.

Length 45 m; draft 2.7 m.

Type: Pleasure craft. MMSI: 319323000.

Date/timePositionNaut miles runAvg speedWind from/ knotsBaromVisibWave heightAir tempDewpointWater temp
2016-May-27 19:26N 43°32' E 007°02'0 0.0
2016-May-27 18:32N 43°32' E 007°02'0 0.0
2016-May-27 17:32N 43°32' E 007°02'0 0.0
2016-May-27 16:32N 43°32' E 007°02'0 0.0
2016-May-27 15:32N 43°32' E 007°02'0 0.0
2016-May-27 14:32N 43°32' E 007°02'0 0.0
2016-May-27 13:32N 43°32' E 007°02'0 0.0
2016-May-27 12:33N 43°32' E 007°02'2 2.4
2016-May-27 11:34N 43°30' E 007°01'3 2.1
2016-May-27 10:13N 43°33' E 007°01'0 0.0
2016-May-27 09:31N 43°33' E 007°01'0 0.0
2016-May-27 08:19N 43°33' E 007°01'0 0.0
2016-May-27 05:28N 43°33' E 007°01'0 0.0
2016-May-27 01:19N 43°33' E 007°01'0 0.0
2016-May-27 00:30N 43°33' E 007°01'0 0.0
2016-May-26 20:34N 43°33' E 007°01'0 0.0
2016-May-26 17:04N 43°33' E 007°01'0 0.0
2016-May-26 16:30N 43°33' E 007°01'0 0.0
2016-May-26 12:31N 43°33' E 007°01'0 0.0
2016-May-26 11:33N 43°33' E 007°01'0 0.0
2016-May-26 08:33N 43°33' E 007°01'0 0.0
2016-May-26 07:33N 43°33' E 007°01'0 0.0
2016-May-26 03:33N 43°33' E 007°01'0 0.0
2016-May-26 00:12N 43°33' E 007°01'0 0.0
2016-May-25 23:33N 43°33' E 007°01'0 0.0
2016-May-25 22:33N 43°33' E 007°01'0 0.0
2016-May-25 19:33N 43°33' E 007°01'0 0.0
2016-May-25 18:30N 43°33' E 007°01'0 0.0
2016-May-25 15:24N 43°33' E 007°01'0 0.0
2016-May-25 14:33N 43°33' E 007°01'0 0.0
2016-May-25 11:32N 43°33' E 007°01'0 0.0
2016-May-25 10:32N 43°33' E 007°01'0 0.0
2016-May-25 07:32N 43°33' E 007°01'0 0.0
2016-May-25 06:32N 43°33' E 007°01'0 0.0
2016-May-25 03:32N 43°33' E 007°01'0 0.0
2016-May-25 02:32N 43°33' E 007°01'0 0.0
2016-May-24 23:23N 43°33' E 007°01'0 0.0
2016-May-24 22:32N 43°33' E 007°01'0 0.0
2016-May-24 19:17N 43°33' E 007°01'0 0.0
2016-May-24 18:29N 43°33' E 007°01'0 0.0
2016-May-24 17:32N 43°33' E 007°01'0 0.0
2016-May-24 13:23N 43°33' E 007°01'0 0.0
2016-May-24 07:13N 43°33' E 007°01'0 0.2
2016-May-24 06:33N 43°33' E 007°01'0 0.4
2016-May-24 05:34N 43°33' E 007°01'6 5.5
2016-May-24 04:33N 43°32' E 007°09'9 9.5
2016-May-24 03:33N 43°36' E 007°20'10 9.4
2016-May-24 02:31N 43°40' E 007°33'19 9.4
2016-May-24 00:30N 43°47' E 007°57'1010.0
2016-May-23 23:31N 43°53' E 008°09'2611.0
2016-May-23 21:08N 44°12' E 008°33'712.0
2016-May-23 20:33N 44°19' E 008°36'1212.0
2016-May-23 19:34N 44°21' E 008°53'4 3.6
2016-May-23 18:31N 44°25' E 008°55'0 0.0
2016-May-23 17:31N 44°25' E 008°55'0 0.0
2016-May-23 16:31N 44°25' E 008°55'0 0.0
2016-May-23 15:31N 44°25' E 008°55'0 0.0
2016-May-23 14:28N 44°25' E 008°55'0 0.0
2016-May-23 13:28N 44°25' E 008°55'0 0.0
2016-May-23 12:28N 44°25' E 008°55'0 0.0
2016-May-23 11:31N 44°25' E 008°55'0 0.0
2016-May-23 10:31N 44°25' E 008°55'0 0.0
2016-May-23 09:33N 44°25' E 008°55'0 0.2
2016-May-23 08:33N 44°24' E 008°55'9 9.4
2016-May-23 07:33N 44°19' E 009°06'5 0.3
2016-May-22 12:26N 44°18' E 009°13'0 0.1
2016-May-22 06:33N 44°18' E 009°13'10 9.8
2016-May-22 05:33N 44°13' E 009°02'1211.6
2016-May-22 04:33N 44°07' E 008°48'1111.5
2016-May-22 03:33N 44°01' E 008°35'1111.0
2016-May-22 02:33N 43°55' E 008°22'1110.8
2016-May-22 01:33N 43°49' E 008°09'3311.0
2016-May-21 22:31N 43°43' E 007°23'1 0.5
2016-May-21 21:13N 43°43' E 007°23'0 0.0
2016-May-21 20:31N 43°43' E 007°23'0 0.0
2016-May-21 19:31N 43°43' E 007°23'0 0.0
2016-May-21 18:25N 43°43' E 007°23'0 0.0
2016-May-21 17:31N 43°43' E 007°23'2 2.2
2016-May-21 16:31N 43°41' E 007°21'0 0.0
2016-May-21 13:31N 43°41' E 007°21'0 0.2
2016-May-21 12:33N 43°42' E 007°21'1010.5
2016-May-21 11:33N 43°34' E 007°11'7 7.3
2016-May-21 10:33N 43°33' E 007°01'0 0.2
2016-May-21 08:33N 43°33' E 007°01'0 0.0
2016-May-21 07:33N 43°33' E 007°01'0 0.0
2016-May-21 06:33N 43°33' E 007°01'0 0.0
2016-May-21 04:33N 43°33' E 007°01'0 0.0
2016-May-21 03:33N 43°33' E 007°01'0 0.0
2016-May-21 02:33N 43°33' E 007°01'0 0.0
2016-May-21 00:12N 43°33' E 007°01'0 0.0
2016-May-20 23:33N 43°33' E 007°01'0 0.0
2016-May-20 22:33N 43°33' E 007°01'0 0.0
2016-May-20 19:33N 43°33' E 007°01'0 0.0
2016-May-20 18:33N 43°33' E 007°01'0 0.0
2016-May-20 15:33N 43°33' E 007°01'0 0.0
2016-May-20 14:33N 43°33' E 007°01'0 0.0
2016-May-20 11:18N 43°33' E 007°01'0 0.0
2016-May-20 10:33N 43°33' E 007°01'0 0.0
2016-May-20 09:33N 43°33' E 007°01'0 0.0
2016-May-20 07:06N 43°33' E 007°01'0 0.0
2016-May-20 06:30N 43°33' E 007°01'0 0.0
2016-May-20 02:33N 43°33' E 007°01'0 0.0
2016-May-20 01:33N 43°33' E 007°01'0 0.0
2016-May-19 22:33N 43°33' E 007°01'0 0.0
2016-May-19 21:33N 43°33' E 007°01'0 0.0
2016-May-19 18:18N 43°33' E 007°01'0 0.0
2016-May-19 17:33N 43°33' E 007°01'0 0.0
2016-May-19 16:33N 43°33' E 007°01'0 0.0
2016-May-19 13:33N 43°33' E 007°01'0 0.0
2016-May-19 12:30N 43°33' E 007°01'0 0.0
2016-May-19 09:33N 43°33' E 007°01'0 0.0
2016-May-19 08:33N 43°33' E 007°01'0 0.0
2016-May-19 05:33N 43°33' E 007°01'0 0.0
2016-May-19 04:33N 43°33' E 007°01'0 0.0
2016-May-19 03:33N 43°33' E 007°01'0 0.0
2016-May-19 01:33N 43°33' E 007°01'0 0.0
2016-May-19 00:33N 43°33' E 007°01'0 0.0
2016-May-18 23:33N 43°33' E 007°01'0 0.0
2016-May-18 20:33N 43°33' E 007°01'0 0.0
2016-May-18 19:33N 43°33' E 007°01'0 0.0
2016-May-18 16:33N 43°33' E 007°01'2 2.2
2016-May-18 15:33N 43°31' E 006°59'2 1.7
2016-May-18 14:31N 43°31' E 006°57'0 0.0
2016-May-18 13:31N 43°31' E 006°57'0 0.0
2016-May-18 11:25N 43°31' E 006°57'4 4.5
2016-May-18 10:33N 43°33' E 007°01'0 0.0
2016-May-18 09:28N 43°33' E 007°01'0 0.0
2016-May-18 08:31N 43°33' E 007°01'0 0.0
2016-May-18 05:25N 43°33' E 007°01'0 0.0
2016-May-18 04:31N 43°33' E 007°01'0 0.0
2016-May-18 03:31N 43°33' E 007°01'0 0.0
2016-May-18 00:31N 43°33' E 007°01'0 0.0
2016-May-17 23:31N 43°33' E 007°01'0 0.0
2016-May-17 20:31N 43°33' E 007°01'0 0.0
2016-May-17 19:31N 43°33' E 007°01'  

Dump ship's entire track history